createdAt,value
2023-05-19T00:00:34.166Z,9.24
2023-05-19T00:01:34.024Z,9.20
2023-05-19T00:02:34.192Z,9.17
2023-05-19T00:03:34.071Z,9.15
2023-05-19T00:04:34.089Z,9.15
2023-05-19T00:05:34.085Z,9.17
2023-05-19T00:06:33.980Z,9.18
2023-05-19T00:07:33.979Z,9.13
2023-05-19T00:08:33.946Z,9.06
2023-05-19T00:09:33.962Z,9.02
2023-05-19T00:10:34.124Z,8.98
2023-05-19T00:11:33.981Z,8.97
2023-05-19T00:12:33.929Z,8.98
2023-05-19T00:13:33.913Z,8.93
2023-05-19T00:14:33.937Z,8.89
2023-05-19T00:15:33.902Z,8.89
2023-05-19T00:16:33.891Z,8.89
2023-05-19T00:17:33.943Z,8.87
2023-05-19T00:18:33.876Z,8.86
2023-05-19T00:19:33.875Z,8.85
2023-05-19T00:20:33.997Z,8.85
2023-05-19T00:21:33.814Z,8.86
2023-05-19T00:22:33.800Z,8.86
2023-05-19T00:23:33.800Z,8.84
2023-05-19T00:24:33.827Z,8.79
2023-05-19T00:25:33.789Z,8.74
2023-05-19T00:26:33.765Z,8.71
2023-05-19T00:27:33.767Z,8.71
2023-05-19T00:28:33.839Z,8.71
2023-05-19T00:29:33.798Z,8.67
2023-05-19T00:30:33.985Z,8.63
2023-05-19T00:31:33.731Z,8.60
2023-05-19T00:32:34.491Z,8.59
2023-05-19T00:33:33.677Z,8.61
2023-05-19T00:34:33.739Z,8.65
2023-05-19T00:35:33.680Z,8.68
2023-05-19T00:36:33.688Z,8.68
2023-05-19T00:37:33.675Z,8.66
2023-05-19T00:38:33.638Z,8.66
2023-05-19T00:39:33.701Z,8.64
2023-05-19T00:40:33.968Z,8.59
2023-05-19T00:41:33.611Z,8.53
2023-05-19T00:42:33.640Z,8.50
2023-05-19T00:43:33.632Z,8.49
2023-05-19T00:44:33.578Z,8.47
2023-05-19T00:45:33.635Z,8.47
2023-05-19T00:46:33.649Z,8.48
2023-05-19T00:47:33.677Z,8.49
2023-05-19T00:48:33.546Z,8.48
2023-05-19T00:49:33.515Z,8.46
2023-05-19T00:50:33.845Z,8.47
2023-05-19T00:51:33.531Z,8.49
2023-05-19T00:52:33.491Z,8.51
2023-05-19T00:53:33.541Z,8.50
2023-05-19T00:54:33.501Z,8.49
2023-05-19T00:55:33.464Z,8.50
2023-05-19T00:56:33.517Z,8.52
2023-05-19T00:57:33.431Z,8.53
2023-05-19T00:58:33.524Z,8.52
2023-05-19T00:59:33.483Z,8.54
2023-05-19T01:00:33.747Z,8.54
2023-05-19T01:01:33.603Z,8.48
2023-05-19T01:02:33.470Z,8.42
2023-05-19T01:03:33.464Z,8.36
2023-05-19T01:04:33.386Z,8.32
2023-05-19T01:05:33.489Z,8.30
2023-05-19T01:06:33.359Z,8.33
2023-05-19T01:07:33.384Z,8.36
2023-05-19T01:08:33.343Z,8.37
2023-05-19T01:09:33.341Z,8.37
2023-05-19T01:10:33.524Z,8.33
2023-05-19T01:11:33.337Z,8.26
2023-05-19T01:12:33.331Z,8.21
2023-05-19T01:13:33.288Z,8.20
2023-05-19T01:14:33.329Z,8.17
2023-05-19T01:15:33.331Z,8.14
2023-05-19T01:16:33.379Z,8.09
2023-05-19T01:17:33.322Z,8.08
2023-05-19T01:18:33.230Z,8.10
2023-05-19T01:19:33.246Z,8.13
2023-05-19T01:20:33.472Z,8.15
2023-05-19T01:21:33.232Z,8.17
2023-05-19T01:22:33.209Z,8.16
2023-05-19T01:23:33.183Z,8.17
2023-05-19T01:24:33.167Z,8.18
2023-05-19T01:25:33.334Z,8.21
2023-05-19T01:26:33.143Z,8.22
2023-05-19T01:27:33.195Z,8.22
2023-05-19T01:28:33.132Z,8.22
2023-05-19T01:29:33.117Z,8.22
2023-05-19T01:30:33.269Z,8.18
2023-05-19T01:31:33.157Z,8.13
2023-05-19T01:32:33.141Z,8.13
2023-05-19T01:33:33.139Z,8.15
2023-05-19T01:34:33.073Z,8.15
2023-05-19T01:35:33.055Z,8.15
2023-05-19T01:36:33.048Z,8.14
2023-05-19T01:37:33.047Z,8.14
2023-05-19T01:38:33.066Z,8.16
2023-05-19T01:39:33.034Z,8.15
2023-05-19T01:40:33.222Z,8.10
2023-05-19T01:41:33.043Z,8.07
2023-05-19T01:42:32.999Z,8.04
2023-05-19T01:43:33.021Z,8.01
2023-05-19T01:44:33.053Z,7.98
2023-05-19T01:45:33.057Z,7.98
2023-05-19T01:46:33.064Z,8.00
2023-05-19T01:47:32.951Z,7.99
2023-05-19T01:48:32.936Z,7.96
2023-05-19T01:49:32.967Z,7.93
2023-05-19T01:50:33.221Z,7.90
2023-05-19T01:51:32.911Z,7.89
2023-05-19T01:52:32.973Z,7.89
2023-05-19T01:53:32.907Z,7.91
2023-05-19T01:54:32.905Z,7.94
2023-05-19T01:55:32.885Z,7.95
2023-05-19T01:56:32.873Z,7.97
2023-05-19T01:57:32.838Z,8.00
2023-05-19T01:58:32.884Z,8.00
2023-05-19T01:59:32.819Z,7.99
2023-05-19T02:00:33.216Z,7.98
2023-05-19T02:01:32.925Z,7.99
2023-05-19T02:02:32.850Z,8.01
2023-05-19T02:03:32.809Z,7.97
2023-05-19T02:04:32.816Z,7.92
2023-05-19T02:05:32.756Z,7.90
2023-05-19T02:06:32.801Z,7.91
2023-05-19T02:07:32.781Z,7.94
2023-05-19T02:08:32.736Z,7.96
2023-05-19T02:09:32.708Z,7.94
2023-05-19T02:10:32.995Z,7.92
2023-05-19T02:11:32.717Z,7.93
2023-05-19T02:12:32.697Z,7.95
2023-05-19T02:13:32.743Z,7.97
2023-05-19T02:14:32.737Z,7.95
2023-05-19T02:15:32.672Z,7.90
2023-05-19T02:16:32.649Z,7.83
2023-05-19T02:17:32.687Z,7.79
2023-05-19T02:18:32.640Z,7.79
2023-05-19T02:19:32.629Z,7.76
2023-05-19T02:20:32.955Z,7.75
2023-05-19T02:21:32.618Z,7.72
2023-05-19T02:22:32.583Z,7.68
2023-05-19T02:23:32.585Z,7.68
2023-05-19T02:24:32.554Z,7.73
2023-05-19T02:25:32.580Z,7.76
2023-05-19T02:26:32.539Z,7.79
2023-05-19T02:27:32.576Z,7.80
2023-05-19T02:28:32.545Z,7.80
2023-05-19T02:29:32.502Z,7.80
2023-05-19T02:30:32.729Z,7.81
2023-05-19T02:31:32.557Z,7.78
2023-05-19T02:32:32.549Z,7.75
2023-05-19T02:33:32.526Z,7.76
2023-05-19T02:34:32.458Z,7.74
2023-05-19T02:35:32.463Z,7.71
2023-05-19T02:36:32.449Z,7.69
2023-05-19T02:37:32.461Z,7.66
2023-05-19T02:38:32.476Z,7.66
2023-05-19T02:39:32.411Z,7.68
2023-05-19T02:40:32.547Z,7.71
2023-05-19T02:41:32.392Z,7.75
2023-05-19T02:42:32.406Z,7.77
2023-05-19T02:43:32.396Z,7.75
2023-05-19T02:44:32.426Z,7.71
2023-05-19T02:45:32.414Z,7.68
2023-05-19T02:46:32.661Z,7.68
2023-05-19T02:47:33.634Z,7.65
2023-05-19T02:48:32.341Z,7.61
2023-05-19T02:49:32.319Z,7.61
2023-05-19T02:50:32.549Z,7.63
2023-05-19T02:51:32.352Z,7.67
2023-05-19T02:52:32.290Z,7.65
2023-05-19T02:53:32.361Z,7.63
2023-05-19T02:54:32.277Z,7.63
2023-05-19T02:55:32.246Z,7.62
2023-05-19T02:56:32.280Z,7.63
2023-05-19T02:57:32.282Z,7.63
2023-05-19T02:58:32.222Z,7.65
2023-05-19T02:59:32.299Z,7.63
2023-05-19T03:00:32.530Z,7.62
2023-05-19T03:01:32.276Z,7.61
2023-05-19T03:02:32.252Z,7.59
2023-05-19T03:03:32.300Z,7.55
2023-05-19T03:04:32.253Z,7.49
2023-05-19T03:05:32.146Z,7.46
2023-05-19T03:06:32.146Z,7.44
2023-05-19T03:07:32.140Z,7.43
2023-05-19T03:08:32.107Z,7.41
2023-05-19T03:09:32.119Z,7.40
2023-05-19T03:10:32.272Z,7.45
2023-05-19T03:11:32.150Z,7.46
2023-05-19T03:12:32.106Z,7.46
2023-05-19T03:13:32.093Z,7.47
2023-05-19T03:14:32.077Z,7.44
2023-05-19T03:15:32.121Z,7.41
2023-05-19T03:16:32.135Z,7.39
2023-05-19T03:17:32.179Z,7.38
2023-05-19T03:18:32.026Z,7.36
2023-05-19T03:19:31.998Z,7.35
2023-05-19T03:20:32.208Z,7.34
2023-05-19T03:21:32.250Z,7.34
2023-05-19T03:22:31.998Z,7.33
2023-05-19T03:23:32.034Z,7.33
2023-05-19T03:24:32.013Z,7.34
2023-05-19T03:25:31.957Z,7.37
2023-05-19T03:26:31.987Z,7.39
2023-05-19T03:27:31.965Z,7.41
2023-05-19T03:28:31.936Z,7.42
2023-05-19T03:29:31.939Z,7.42
2023-05-19T03:30:32.155Z,7.42
2023-05-19T03:31:31.942Z,7.43
2023-05-19T03:32:31.961Z,7.42
2023-05-19T03:33:31.955Z,7.41
2023-05-19T03:34:31.878Z,7.37
2023-05-19T03:35:31.884Z,7.36
2023-05-19T03:36:31.962Z,7.36
2023-05-19T03:37:31.829Z,7.32
2023-05-19T03:38:31.839Z,7.31
2023-05-19T03:39:31.843Z,7.33
2023-05-19T03:40:32.144Z,7.34
2023-05-19T03:41:31.803Z,7.34
2023-05-19T03:42:31.794Z,7.32
2023-05-19T03:43:31.783Z,7.32
2023-05-19T03:44:31.798Z,7.36
2023-05-19T03:45:31.785Z,7.33
2023-05-19T03:46:31.742Z,7.29
2023-05-19T03:47:31.800Z,7.23
2023-05-19T03:48:31.747Z,7.20
2023-05-19T03:49:31.737Z,7.19
2023-05-19T03:50:32.006Z,7.20
2023-05-19T03:51:31.685Z,7.21
2023-05-19T03:52:31.694Z,7.19
2023-05-19T03:53:31.762Z,7.19
2023-05-19T03:54:31.664Z,7.20
2023-05-19T03:55:31.653Z,7.24
2023-05-19T03:56:31.624Z,7.28
2023-05-19T03:57:31.619Z,7.28
2023-05-19T03:58:31.632Z,7.25
2023-05-19T03:59:31.648Z,7.25
2023-05-19T04:00:31.773Z,7.27
2023-05-19T04:01:31.585Z,7.29
2023-05-19T04:02:31.712Z,7.32
2023-05-19T04:03:31.608Z,7.36
2023-05-19T04:04:31.612Z,7.39
2023-05-19T04:05:31.566Z,7.37
2023-05-19T04:06:31.527Z,7.35
2023-05-19T04:07:31.601Z,7.35
2023-05-19T04:08:31.551Z,7.35
2023-05-19T04:09:31.507Z,7.34
2023-05-19T04:10:31.735Z,7.31
2023-05-19T04:11:31.504Z,7.29
2023-05-19T04:12:31.516Z,7.29
2023-05-19T04:13:31.473Z,7.27
2023-05-19T04:14:31.472Z,7.28
2023-05-19T04:15:31.497Z,7.29
2023-05-19T04:16:31.479Z,7.28
2023-05-19T04:17:31.490Z,7.29
2023-05-19T04:18:31.461Z,7.32
2023-05-19T04:19:31.449Z,7.33
2023-05-19T04:20:31.646Z,7.33
2023-05-19T04:21:31.404Z,7.35
2023-05-19T04:22:31.355Z,7.38
2023-05-19T04:23:31.465Z,7.38
2023-05-19T04:24:31.357Z,7.36
2023-05-19T04:25:31.425Z,7.36
2023-05-19T04:26:31.352Z,7.39
2023-05-19T04:27:31.349Z,7.41
2023-05-19T04:28:31.319Z,7.45
2023-05-19T04:29:31.326Z,7.48
2023-05-19T04:30:31.732Z,7.49
2023-05-19T04:31:31.400Z,7.48
2023-05-19T04:32:31.349Z,7.46
2023-05-19T04:33:31.284Z,7.46
2023-05-19T04:34:31.250Z,7.49
2023-05-19T04:35:31.246Z,7.54
2023-05-19T04:36:31.261Z,7.55
2023-05-19T04:37:31.260Z,7.52
2023-05-19T04:38:31.210Z,7.51
2023-05-19T04:39:31.237Z,7.52
2023-05-19T04:40:31.491Z,7.51
2023-05-19T04:41:31.237Z,7.50
2023-05-19T04:42:31.197Z,7.48
2023-05-19T04:43:31.164Z,7.48
2023-05-19T04:44:31.155Z,7.49
2023-05-19T04:45:31.165Z,7.49
2023-05-19T04:46:31.159Z,7.51
2023-05-19T04:47:31.159Z,7.53
2023-05-19T04:48:31.106Z,7.54
2023-05-19T04:49:31.107Z,7.55
2023-05-19T04:50:31.348Z,7.57
2023-05-19T04:51:31.114Z,7.61
2023-05-19T04:52:31.067Z,7.64
2023-05-19T04:53:31.077Z,7.67
2023-05-19T04:54:31.076Z,7.70
2023-05-19T04:55:31.070Z,7.73
2023-05-19T04:56:31.034Z,7.74
2023-05-19T04:57:31.037Z,7.74
2023-05-19T04:58:31.065Z,7.76
2023-05-19T04:59:30.991Z,7.80
2023-05-19T05:00:31.261Z,7.84
2023-05-19T05:01:31.057Z,7.86
2023-05-19T05:02:31.068Z,7.91
2023-05-19T05:03:31.173Z,7.94
2023-05-19T05:04:31.030Z,7.96
2023-05-19T05:05:30.949Z,8.00
2023-05-19T05:06:30.981Z,8.04
2023-05-19T05:07:32.321Z,8.08
2023-05-19T05:08:30.994Z,8.13
2023-05-19T05:09:30.918Z,8.17
2023-05-19T05:10:31.174Z,8.18
2023-05-19T05:11:30.863Z,8.18
2023-05-19T05:12:30.930Z,8.19
2023-05-19T05:13:30.873Z,8.22
2023-05-19T05:14:30.877Z,8.24
2023-05-19T05:15:30.829Z,8.28
2023-05-19T05:16:30.935Z,8.32
2023-05-19T05:17:30.885Z,8.37
2023-05-19T05:18:30.856Z,8.44
2023-05-19T05:19:31.000Z,8.51
2023-05-19T05:20:30.912Z,8.58
2023-05-19T05:21:30.773Z,8.62
2023-05-19T05:22:30.743Z,8.63
2023-05-19T05:23:30.804Z,8.66
2023-05-19T05:24:30.745Z,8.72
2023-05-19T05:25:30.883Z,8.78
2023-05-19T05:26:30.743Z,8.84
2023-05-19T05:27:30.761Z,8.88
2023-05-19T05:28:30.698Z,8.94
2023-05-19T05:29:30.692Z,9.00
2023-05-19T05:30:30.670Z,9.04
2023-05-19T05:31:30.727Z,9.08
2023-05-19T05:32:30.776Z,9.10
2023-05-19T05:33:30.682Z,9.12
2023-05-19T05:34:30.654Z,9.15
2023-05-19T05:35:30.836Z,9.19
2023-05-19T05:36:30.680Z,9.22
2023-05-19T05:37:30.645Z,9.23
2023-05-19T05:38:30.592Z,9.25
2023-05-19T05:39:30.644Z,9.27
2023-05-19T05:40:30.593Z,9.32
2023-05-19T05:41:30.564Z,9.38
2023-05-19T05:42:30.582Z,9.44
2023-05-19T05:43:30.590Z,9.50
2023-05-19T05:44:30.565Z,9.56
2023-05-19T05:45:30.765Z,9.60
2023-05-19T05:46:30.586Z,9.63
2023-05-19T05:47:30.585Z,9.67
2023-05-19T05:48:30.577Z,9.71
2023-05-19T05:49:30.502Z,9.77
2023-05-19T05:50:30.486Z,9.83
2023-05-19T05:51:30.461Z,9.89
2023-05-19T05:52:30.453Z,9.92
2023-05-19T05:53:30.467Z,9.95
2023-05-19T05:54:30.463Z,10.00
2023-05-19T05:55:30.517Z,10.04
2023-05-19T05:56:30.411Z,10.08
2023-05-19T05:57:30.401Z,10.13
2023-05-19T05:58:30.426Z,10.18
2023-05-19T05:59:30.412Z,10.21
2023-05-19T06:00:30.551Z,10.25
2023-05-19T06:01:30.402Z,10.30
2023-05-19T06:02:30.479Z,10.34
2023-05-19T06:03:30.358Z,10.37
2023-05-19T06:04:30.322Z,10.40
2023-05-19T06:05:30.371Z,10.41
2023-05-19T06:06:30.306Z,10.36
2023-05-19T06:07:30.291Z,10.34
2023-05-19T06:08:30.309Z,10.39
2023-05-19T06:09:30.370Z,10.47
2023-05-19T06:10:30.444Z,10.53
2023-05-19T06:11:30.413Z,10.57
2023-05-19T06:12:30.246Z,10.60
2023-05-19T06:13:30.218Z,10.62
2023-05-19T06:14:30.240Z,10.64
2023-05-19T06:15:30.575Z,10.68
2023-05-19T06:16:30.329Z,10.72
2023-05-19T06:17:30.270Z,10.76
2023-05-19T06:18:30.192Z,10.79
2023-05-19T06:19:30.207Z,10.82
2023-05-19T06:20:30.312Z,10.83
2023-05-19T06:21:30.157Z,10.84
2023-05-19T06:22:30.145Z,10.88
2023-05-19T06:23:30.196Z,10.93
2023-05-19T06:24:30.199Z,10.98
2023-05-19T06:25:30.363Z,11.04
2023-05-19T06:26:30.108Z,11.10
2023-05-19T06:27:30.603Z,11.14
2023-05-19T06:28:30.060Z,11.17
2023-05-19T06:29:30.131Z,11.21
2023-05-19T06:30:30.206Z,11.27
2023-05-19T06:31:30.099Z,11.31
2023-05-19T06:32:30.082Z,11.34
2023-05-19T06:33:30.041Z,11.39
2023-05-19T06:34:30.008Z,11.43
2023-05-19T06:35:30.076Z,11.49
2023-05-19T06:36:29.979Z,11.52
2023-05-19T06:37:29.985Z,11.53
2023-05-19T06:38:29.981Z,11.54
2023-05-19T06:39:30.003Z,11.56
2023-05-19T06:40:30.132Z,11.60
2023-05-19T06:41:29.950Z,11.65
2023-05-19T06:42:29.994Z,11.71
2023-05-19T06:43:29.916Z,11.77
2023-05-19T06:44:29.968Z,11.82
2023-05-19T06:45:29.956Z,11.88
2023-05-19T06:46:29.958Z,11.94
2023-05-19T06:47:30.036Z,11.98
2023-05-19T06:48:29.862Z,12.02
2023-05-19T06:49:29.863Z,12.04
2023-05-19T06:50:29.899Z,12.05
2023-05-19T06:51:29.902Z,12.10
2023-05-19T06:52:29.863Z,12.17
2023-05-19T06:53:29.850Z,12.26
2023-05-19T06:54:29.842Z,12.33
2023-05-19T06:55:29.796Z,12.37
2023-05-19T06:56:29.794Z,12.42
2023-05-19T06:57:29.794Z,12.50
2023-05-19T06:58:29.776Z,12.58
2023-05-19T06:59:29.925Z,12.68
2023-05-19T07:00:29.747Z,12.76
2023-05-19T07:01:29.782Z,12.84
2023-05-19T07:02:29.856Z,12.91
2023-05-19T07:03:29.839Z,12.95
2023-05-19T07:04:29.765Z,13.00
2023-05-19T07:05:29.699Z,13.06
2023-05-19T07:06:29.685Z,13.10
2023-05-19T07:07:29.718Z,13.12
2023-05-19T07:08:29.666Z,13.16
2023-05-19T07:09:29.720Z,13.20
2023-05-19T07:10:30.331Z,13.22
2023-05-19T07:11:29.636Z,13.25
2023-05-19T07:12:29.711Z,13.31
2023-05-19T07:13:29.651Z,13.41
2023-05-19T07:14:29.607Z,13.50
2023-05-19T07:15:29.592Z,13.55
2023-05-19T07:16:29.647Z,13.57
2023-05-19T07:17:29.596Z,13.57
2023-05-19T07:18:29.564Z,13.57
2023-05-19T07:19:29.652Z,13.58
2023-05-19T07:20:29.583Z,13.59
2023-05-19T07:21:29.576Z,13.62
2023-05-19T07:22:29.570Z,13.66
2023-05-19T07:23:29.496Z,13.71
2023-05-19T07:24:29.535Z,13.78
2023-05-19T07:25:29.575Z,13.83
2023-05-19T07:26:29.534Z,13.87
2023-05-19T07:27:29.488Z,13.88
2023-05-19T07:28:29.465Z,13.89
2023-05-19T07:29:29.556Z,13.90
2023-05-19T07:30:29.432Z,13.86
2023-05-19T07:31:29.613Z,13.81
2023-05-19T07:32:29.444Z,13.82
2023-05-19T07:33:29.404Z,13.94
2023-05-19T07:34:29.385Z,14.09
2023-05-19T07:35:29.538Z,14.24
2023-05-19T07:36:29.371Z,14.38
2023-05-19T07:37:29.349Z,14.49
2023-05-19T07:38:29.355Z,14.60
2023-05-19T07:39:29.381Z,14.69
2023-05-19T07:40:29.323Z,14.74
2023-05-19T07:41:29.568Z,14.80
2023-05-19T07:42:29.297Z,14.86
2023-05-19T07:43:29.283Z,14.92
2023-05-19T07:44:29.283Z,14.98
2023-05-19T07:45:29.327Z,15.05
2023-05-19T07:46:29.374Z,15.11
2023-05-19T07:47:29.309Z,15.11
2023-05-19T07:48:29.268Z,15.12
2023-05-19T07:49:29.256Z,15.16
2023-05-19T07:50:29.214Z,15.24
2023-05-19T07:51:29.255Z,15.25
2023-05-19T07:52:29.222Z,15.27
2023-05-19T07:53:29.251Z,15.39
2023-05-19T07:54:29.187Z,15.51
2023-05-19T07:55:29.181Z,15.57
2023-05-19T07:56:29.192Z,15.61
2023-05-19T07:57:29.208Z,15.64
2023-05-19T07:58:29.156Z,15.67
2023-05-19T07:59:29.128Z,15.63
2023-05-19T08:00:29.126Z,15.55
2023-05-19T08:01:29.117Z,15.51
2023-05-19T08:02:29.184Z,15.56
2023-05-19T08:03:29.385Z,15.66
2023-05-19T08:04:29.111Z,15.72
2023-05-19T08:05:29.132Z,15.78
2023-05-19T08:06:29.068Z,15.86
2023-05-19T08:07:29.056Z,15.93
2023-05-19T08:08:29.096Z,15.95
2023-05-19T08:09:29.038Z,15.99
2023-05-19T08:10:29.025Z,16.12
2023-05-19T08:11:29.079Z,16.26
2023-05-19T08:12:29.029Z,16.39
2023-05-19T08:13:29.029Z,16.50
2023-05-19T08:14:28.989Z,16.61
2023-05-19T08:15:29.063Z,16.72
2023-05-19T08:16:29.040Z,16.73
2023-05-19T08:17:28.991Z,16.68
2023-05-19T08:18:28.951Z,16.69
2023-05-19T08:19:28.997Z,16.66
2023-05-19T08:20:28.942Z,16.61
2023-05-19T08:21:28.968Z,16.55
2023-05-19T08:22:28.919Z,16.48
2023-05-19T08:23:28.900Z,16.42
2023-05-19T08:24:28.878Z,16.42
2023-05-19T08:25:28.943Z,16.46
2023-05-19T08:26:28.938Z,16.56
2023-05-19T08:27:28.848Z,16.59
2023-05-19T08:28:28.861Z,16.62
2023-05-19T08:29:28.831Z,16.62
2023-05-19T08:30:28.823Z,16.63
2023-05-19T08:31:28.832Z,16.68
2023-05-19T08:32:28.835Z,16.75
2023-05-19T08:33:28.777Z,16.80
2023-05-19T08:34:28.787Z,16.84
2023-05-19T08:35:28.794Z,16.86
2023-05-19T08:36:28.748Z,16.76
2023-05-19T08:37:28.835Z,16.61
2023-05-19T08:38:28.830Z,16.52
2023-05-19T08:39:28.720Z,16.50
2023-05-19T08:40:28.715Z,16.48
2023-05-19T08:41:28.779Z,16.45
2023-05-19T08:42:28.687Z,16.32
2023-05-19T08:43:28.759Z,16.15
2023-05-19T08:44:28.723Z,16.05
2023-05-19T08:45:28.656Z,15.97
2023-05-19T08:46:28.706Z,15.88
2023-05-19T08:47:28.653Z,15.82
2023-05-19T08:48:28.698Z,15.81
2023-05-19T08:49:28.682Z,15.80
2023-05-19T08:50:28.621Z,15.79
2023-05-19T08:51:28.617Z,15.81
2023-05-19T08:52:28.594Z,15.83
2023-05-19T08:54:28.559Z,15.93
2023-05-19T08:55:28.567Z,16.02
2023-05-19T08:56:28.603Z,16.03
2023-05-19T08:57:28.551Z,15.99
2023-05-19T08:58:28.926Z,16.00
2023-05-19T08:59:28.534Z,16.11
2023-05-19T09:00:28.518Z,16.31
2023-05-19T09:01:28.631Z,16.50
2023-05-19T09:02:28.556Z,16.67
2023-05-19T09:03:28.564Z,16.84
2023-05-19T09:04:30.104Z,17.02
2023-05-19T09:05:28.555Z,17.21
2023-05-19T09:06:28.446Z,17.42
2023-05-19T09:07:28.444Z,17.62
2023-05-19T09:08:28.430Z,17.76
2023-05-19T09:09:28.454Z,17.89
2023-05-19T09:10:29.181Z,17.99
2023-05-19T09:11:28.416Z,18.04
2023-05-19T09:12:28.405Z,18.06
2023-05-19T09:13:28.391Z,18.01
2023-05-19T09:14:28.425Z,17.88
2023-05-19T09:15:28.375Z,17.64
2023-05-19T09:16:30.196Z,17.44
2023-05-19T09:17:28.431Z,17.27
2023-05-19T09:18:28.349Z,17.06
2023-05-19T09:19:28.480Z,16.93
2023-05-19T09:20:28.316Z,16.91
2023-05-19T09:21:28.293Z,16.93
2023-05-19T09:22:28.310Z,16.92
2023-05-19T09:23:28.260Z,16.94
2023-05-19T09:24:28.259Z,16.99
2023-05-19T09:25:28.274Z,17.00
2023-05-19T09:26:28.225Z,16.94
2023-05-19T09:27:28.252Z,16.99
2023-05-19T09:28:28.216Z,17.11
2023-05-19T09:29:28.254Z,17.17
2023-05-19T09:30:28.195Z,17.19
2023-05-19T09:31:28.267Z,17.28
2023-05-19T09:32:28.246Z,17.47
2023-05-19T09:33:28.159Z,17.71
2023-05-19T09:34:28.191Z,17.96
2023-05-19T09:35:28.140Z,18.10
2023-05-19T09:36:28.136Z,18.03
2023-05-19T09:37:28.142Z,17.84
2023-05-19T09:38:28.169Z,17.68
2023-05-19T09:39:28.100Z,17.59
2023-05-19T09:40:28.137Z,17.48
2023-05-19T09:41:28.085Z,17.35
2023-05-19T09:42:28.078Z,17.33
2023-05-19T09:43:28.065Z,17.41
2023-05-19T09:44:28.079Z,17.48
2023-05-19T09:45:28.034Z,17.53
2023-05-19T09:46:28.099Z,17.59
2023-05-19T09:47:28.082Z,17.57
2023-05-19T09:48:28.002Z,17.48
2023-05-19T09:49:27.996Z,17.44
2023-05-19T09:50:28.002Z,17.38
2023-05-19T09:51:27.980Z,17.23
2023-05-19T09:52:27.977Z,17.09
2023-05-19T09:53:27.948Z,17.01
2023-05-19T09:54:27.937Z,17.02
2023-05-19T09:55:27.944Z,17.09
2023-05-19T09:56:27.968Z,17.24
2023-05-19T09:57:27.924Z,17.51
2023-05-19T09:58:27.975Z,17.71
2023-05-19T09:59:30.493Z,17.86
2023-05-19T10:00:27.900Z,18.04
2023-05-19T10:01:27.921Z,18.03
2023-05-19T10:02:27.912Z,17.80
2023-05-19T10:03:27.859Z,17.54
2023-05-19T10:04:27.941Z,17.48
2023-05-19T10:05:27.850Z,17.57
2023-05-19T10:06:27.840Z,17.76
2023-05-19T10:07:27.877Z,18.02
2023-05-19T10:08:27.792Z,18.29
2023-05-19T10:09:27.837Z,18.48
2023-05-19T10:10:27.806Z,18.55
2023-05-19T10:11:27.777Z,18.49
2023-05-19T10:12:27.774Z,18.29
2023-05-19T10:13:27.749Z,18.02
2023-05-19T10:14:27.741Z,17.80
2023-05-19T10:15:27.738Z,17.76
2023-05-19T10:16:27.779Z,17.78
2023-05-19T10:17:27.739Z,17.73
2023-05-19T10:18:27.848Z,17.66
2023-05-19T10:19:27.866Z,17.57
2023-05-19T10:20:27.720Z,17.52
2023-05-19T10:21:27.698Z,17.54
2023-05-19T10:22:27.695Z,17.56
2023-05-19T10:23:27.640Z,17.62
2023-05-19T10:24:27.687Z,17.74
2023-05-19T10:25:27.627Z,17.83
2023-05-19T10:26:27.651Z,17.88
2023-05-19T10:27:27.614Z,17.94
2023-05-19T10:28:27.582Z,17.99
2023-05-19T10:29:27.567Z,18.10
2023-05-19T10:30:27.576Z,18.28
2023-05-19T10:31:27.595Z,18.47
2023-05-19T10:32:27.702Z,18.58
2023-05-19T10:33:27.595Z,18.55
2023-05-19T10:34:27.567Z,18.54
2023-05-19T10:35:27.532Z,18.67
2023-05-19T10:36:27.518Z,18.85
2023-05-19T10:37:27.530Z,18.95
2023-05-19T10:38:27.528Z,18.97
2023-05-19T10:39:27.462Z,18.93
2023-05-19T10:40:27.471Z,18.78
2023-05-19T10:41:27.446Z,18.52
2023-05-19T10:42:27.478Z,18.33
2023-05-19T10:43:27.471Z,18.20
2023-05-19T10:44:27.486Z,18.07
2023-05-19T10:45:27.402Z,18.01
2023-05-19T10:46:27.526Z,18.01
2023-05-19T10:47:27.543Z,18.02
2023-05-19T10:48:27.378Z,18.03
2023-05-19T10:49:27.382Z,18.08
2023-05-19T10:50:27.358Z,18.13
2023-05-19T10:51:27.340Z,18.14
2023-05-19T10:52:27.405Z,18.22
2023-05-19T10:53:27.338Z,18.32
2023-05-19T10:54:27.314Z,18.34
2023-05-19T10:55:27.319Z,18.33
2023-05-19T10:56:27.355Z,18.28
2023-05-19T10:57:27.312Z,18.29
2023-05-19T10:58:27.328Z,18.41
2023-05-19T10:59:27.933Z,18.56
2023-05-19T11:00:27.260Z,18.63
2023-05-19T11:01:27.253Z,18.60
2023-05-19T11:02:27.261Z,18.51
2023-05-19T11:03:27.325Z,18.42
2023-05-19T11:04:27.250Z,18.38
2023-05-19T11:05:27.226Z,18.38
2023-05-19T11:06:27.210Z,18.40
2023-05-19T11:07:27.235Z,18.47
2023-05-19T11:08:27.162Z,18.40
2023-05-19T11:09:37.847Z,18.23
2023-05-19T11:10:27.182Z,18.09
2023-05-19T11:11:27.236Z,18.04
2023-05-19T11:12:27.173Z,18.01
2023-05-19T11:13:28.411Z,17.99
2023-05-19T11:14:27.115Z,18.05
2023-05-19T11:15:27.106Z,18.15
2023-05-19T11:16:27.165Z,18.22
2023-05-19T11:17:27.102Z,18.24
2023-05-19T11:18:27.093Z,18.25
2023-05-19T11:19:27.127Z,18.27
2023-05-19T11:20:27.048Z,18.31
2023-05-19T11:21:27.093Z,18.33
2023-05-19T11:22:27.056Z,18.20
2023-05-19T11:23:27.050Z,18.09
2023-05-19T11:24:27.001Z,18.00
2023-05-19T11:25:26.987Z,17.91
2023-05-19T11:26:26.993Z,17.88
2023-05-19T11:27:26.999Z,17.92
2023-05-19T11:28:26.965Z,17.95
2023-05-19T11:29:26.985Z,17.96
2023-05-19T11:30:26.950Z,17.96
2023-05-19T11:31:26.974Z,17.93
2023-05-19T11:32:27.002Z,17.89
2023-05-19T11:33:26.920Z,17.90
2023-05-19T11:34:26.908Z,17.96
2023-05-19T11:35:26.949Z,18.08
2023-05-19T11:36:26.869Z,18.22
2023-05-19T11:37:26.880Z,18.30
2023-05-19T11:38:26.973Z,18.37
2023-05-19T11:39:26.873Z,18.49
2023-05-19T11:40:26.873Z,18.67
2023-05-19T11:41:26.871Z,18.91
2023-05-19T11:42:26.833Z,19.04
2023-05-19T11:43:26.827Z,18.96
2023-05-19T11:44:26.799Z,18.82
2023-05-19T11:45:26.812Z,18.70
2023-05-19T11:46:26.831Z,18.66
2023-05-19T11:47:26.839Z,18.69
2023-05-19T11:48:26.854Z,18.69
2023-05-19T11:49:26.776Z,18.70
2023-05-19T11:50:26.769Z,18.77
2023-05-19T11:51:26.770Z,18.76
2023-05-19T11:52:26.709Z,18.66
2023-05-19T11:53:26.725Z,18.53
2023-05-19T11:54:26.766Z,18.37
2023-05-19T11:55:26.677Z,18.25
2023-05-19T11:56:26.724Z,18.23
2023-05-19T11:57:26.678Z,18.25
2023-05-19T11:58:26.680Z,18.25
2023-05-19T11:59:26.672Z,18.25
2023-05-19T12:00:26.650Z,18.28
2023-05-19T12:01:26.626Z,18.36
2023-05-19T12:02:26.729Z,18.44
2023-05-19T12:03:26.667Z,18.49
2023-05-19T12:04:26.626Z,18.52
2023-05-19T12:05:26.686Z,18.59
2023-05-19T12:06:26.617Z,18.63
2023-05-19T12:07:26.603Z,18.58
2023-05-19T12:08:26.587Z,18.50
2023-05-19T12:09:26.555Z,18.50
2023-05-19T12:10:26.526Z,18.54
2023-05-19T12:11:26.520Z,18.57
2023-05-19T12:12:26.531Z,18.59
2023-05-19T12:13:26.533Z,18.62
2023-05-19T12:14:26.539Z,18.65
2023-05-19T12:15:26.472Z,18.64
2023-05-19T12:16:26.597Z,18.60
2023-05-19T12:17:26.475Z,18.58
2023-05-19T12:18:26.504Z,18.58
2023-05-19T12:19:26.578Z,18.59
2023-05-19T12:20:26.428Z,18.59
2023-05-19T12:21:34.303Z,18.60
2023-05-19T12:22:26.417Z,18.57
2023-05-19T12:23:26.442Z,18.50
2023-05-19T12:24:26.415Z,18.43
2023-05-19T12:25:26.408Z,18.37
2023-05-19T12:26:26.397Z,18.29
2023-05-19T12:27:26.447Z,18.25
2023-05-19T12:28:26.342Z,18.23
2023-05-19T12:29:26.367Z,18.28
2023-05-19T12:30:26.310Z,18.37
2023-05-19T12:31:26.460Z,18.47
2023-05-19T12:32:26.329Z,18.60
2023-05-19T12:33:26.363Z,18.74
2023-05-19T12:34:26.257Z,18.85
2023-05-19T12:35:26.258Z,18.92
2023-05-19T12:36:26.260Z,18.91
2023-05-19T12:37:26.264Z,18.91
2023-05-19T12:38:26.259Z,18.95
2023-05-19T12:39:26.224Z,19.02
2023-05-19T12:40:26.223Z,19.00
2023-05-19T12:41:26.196Z,18.97
2023-05-19T12:42:26.204Z,18.94
2023-05-19T12:43:26.208Z,18.91
2023-05-19T12:44:26.196Z,18.90
2023-05-19T12:45:26.147Z,18.88
2023-05-19T12:46:26.257Z,18.88
2023-05-19T12:47:26.172Z,18.88
2023-05-19T12:48:26.139Z,18.87
2023-05-19T12:49:26.125Z,18.81
2023-05-19T12:50:26.197Z,18.76
2023-05-19T12:51:26.079Z,18.77
2023-05-19T12:52:26.081Z,18.79
2023-05-19T12:53:26.082Z,18.83
2023-05-19T12:54:26.149Z,18.92
2023-05-19T12:55:26.049Z,19.02
2023-05-19T12:56:26.079Z,19.06
2023-05-19T12:57:26.026Z,19.09
2023-05-19T12:58:26.062Z,19.08
2023-05-19T12:59:37.370Z,19.04
2023-05-19T13:00:26.014Z,18.94
2023-05-19T13:01:26.145Z,18.77
2023-05-19T13:02:26.012Z,18.68
2023-05-19T13:03:26.047Z,18.63
2023-05-19T13:04:26.006Z,18.55
2023-05-19T13:05:25.950Z,18.48